Terminal Aerodrome Forecast
Issued by NWS Grand Forks, ND

Home | Current Version | Previous Version | Graphics & Text | Print | Product List | Glossary On
Versions: 1 2 3 4 5 6 7 8 9 10 11 12 13 14 15 16 17
000
FTUS43 KFGF 280351 AAB
TAFFAR
TAF AMD
KFAR 280351Z 2804/2824 01010KT P6SM BKN028
     FM281200 01006KT P6SM SKC
     FM282300 04006KT P6SM SKC=

USA.gov is the U.S. government's official web portal to all federal, state and local government web resources and services.